Time;durP1;ratioP1;P1;durP2;ratioP2;P2;SDS_P1;SDS_P2;PMS_P1;PMS_P2;Temp;Humidity;BMP_temperature;BMP_pressure;BME280_temperature;BME280_humidity;BME280_pressure;Samples;Min_cycle;Max_cycle;Signal;HPM_P1;HPM_P2
2023/06/28 00:00:23;;;;;;;;;;;;;;;19.66;47.15;92793.75;2067922;69;20058;-78
2023/06/28 00:02:49;;;;;;;;;;;;;;;19.52;48.47;92789.06;2055142;69;20086;-78
2023/06/28 00:05:14;;;;;;;;;;;;;;;19.60;47.76;92790.69;2055269;69;20081;-79
2023/06/28 00:07:40;;;;;;;;;;;;;;;19.54;47.90;92791.25;2055723;70;20508;-78
2023/06/28 00:10:06;;;;;;;;;;;;;;;19.52;47.35;92794.78;2055499;69;20054;-78
2023/06/28 00:12:32;;;;;;;;;;;;;;;19.50;47.97;92796.81;2055777;69;20053;-78
2023/06/28 00:14:58;;;;;;;;;;;;;;;19.58;48.06;92791.34;2055588;70;20425;-78
2023/06/28 00:17:27;;;;;;;;;;;;;;;19.58;48.14;92779.94;2055304;70;20069;-79
2023/06/28 00:19:56;;;;;;;;;;;;;;;19.66;47.34;92788.03;2055841;69;20049;-78
2023/06/28 00:22:29;;;;;;;;;;;;;;;19.59;47.74;92789.94;2055805;69;20046;-78
2023/06/28 00:28:23;;;;;;;;;;;;;;;19.40;48.80;92783.00;2056081;69;20670;-79
2023/06/28 00:30:48;;;;;;;;;;;;;;;19.41;48.60;92798.72;2056590;70;20165;-78
2023/06/28 00:33:19;;;;;;;;;;;;;;;19.46;47.63;92794.56;2055630;70;20082;-78
2023/06/28 00:35:45;;;;;;;;;;;;;;;19.30;48.74;92791.25;2068662;69;20058;-79
2023/06/28 00:38:11;;;;;;;;;;;;;;;19.29;48.68;92801.22;2055423;69;20437;-79
2023/06/28 00:40:36;;;;;;;;;;;;;;;19.22;48.32;92791.00;2068636;69;20141;-78
2023/06/28 00:43:02;;;;;;;;;;;;;;;19.32;47.90;92802.00;2068567;69;20054;-78
2023/06/28 00:45:28;;;;;;;;;;;;;;;19.29;48.85;92790.53;2068533;69;20116;-78
2023/06/28 00:47:54;;;;;;;;;;;;;;;19.30;48.17;92794.09;2055664;70;20077;-79
2023/06/28 00:50:20;;;;;;;;;;;;;;;19.29;47.60;92793.38;2055652;70;20039;-78
2023/06/28 00:52:45;;;;;;;;;;;;;;;19.30;48.45;92786.28;2055569;70;20057;-78
2023/06/28 00:55:11;;;;;;;;;;;;;;;19.23;49.36;92796.03;2055387;70;20054;-76
2023/06/28 00:57:38;;;;;;;;;;;;;;;19.24;49.85;92791.81;2055889;69;20115;-78
2023/06/28 01:00:11;;;;;;;;;;;;;;;19.17;50.13;92786.56;2056022;69;20082;-78
2023/06/28 01:02:41;;;;;;;;;;;;;;;19.16;49.93;92790.84;2068088;69;20425;-78
2023/06/28 01:05:09;;;;;;;;;;;;;;;19.19;50.29;92786.63;2068487;69;20047;-78
2023/06/28 01:07:36;;;;;;;;;;;;;;;19.24;50.21;92788.19;2055459;70;20050;-78
2023/06/28 01:10:02;;;;;;;;;;;;;;;19.25;50.33;92786.81;2055421;70;20144;-77
2023/06/28 01:12:27;;;;;;;;;;;;;;;19.23;50.10;92773.22;2068831;69;20046;-79
2023/06/28 01:14:53;;;;;;;;;;;;;;;19.19;49.22;92780.91;2065320;69;20059;-78
2023/06/28 01:17:19;;;;;;;;;;;;;;;19.22;49.85;92780.31;2055352;70;20057;-78
2023/06/28 01:19:45;;;;;;;;;;;;;;;19.29;49.72;92787.69;2055131;69;20161;-78
2023/06/28 01:22:13;;;;;;;;;;;;;;;19.16;50.54;92782.28;2055025;70;20204;-78
2023/06/28 01:24:38;;;;;;;;;;;;;;;19.14;50.03;92788.63;2068218;69;20061;-78
2023/06/28 01:27:06;;;;;;;;;;;;;;;19.17;50.17;92783.72;2055336;69;20066;-78
2023/06/28 01:29:31;;;;;;;;;;;;;;;19.04;51.24;92791.19;2055110;69;20099;-78
2023/06/28 01:31:57;;;;;;;;;;;;;;;19.01;52.07;92798.97;2055151;69;20058;-78
2023/06/28 01:34:24;;;;;;;;;;;;;;;19.08;52.45;92807.69;2055295;70;20058;-78
2023/06/28 01:36:52;;;;;;;;;;;;;;;18.92;52.07;92808.66;2055550;70;20199;-79
2023/06/28 01:42:47;;;;;;;;;;;;;;;18.96;51.54;92805.19;2055309;69;20097;-78
2023/06/28 01:45:13;;;;;;;;;;;;;;;18.93;50.72;92815.81;2067984;69;20051;-79
2023/06/28 01:47:40;;;;;;;;;;;;;;;18.64;52.20;92814.13;2068124;69;20050;-79
2023/06/28 01:50:06;;;;;;;;;;;;;;;18.58;52.16;92816.78;2055487;69;20046;-78
2023/06/28 01:52:32;;;;;;;;;;;;;;;18.84;51.71;92810.53;2055426;69;20141;-76
2023/06/28 01:55:03;;;;;;;;;;;;;;;18.94;51.11;92810.84;2055395;70;20486;-78
2023/06/28 01:57:28;;;;;;;;;;;;;;;19.02;50.77;92817.53;2068484;69;20050;-77
2023/06/28 01:59:54;;;;;;;;;;;;;;;18.87;51.04;92815.59;2068470;69;20070;-78
2023/06/28 02:02:23;;;;;;;;;;;;;;;19.08;49.21;92819.09;2068747;69;20086;-79
2023/06/28 02:04:49;;;;;;;;;;;;;;;19.15;49.18;92810.06;2055601;70;20055;-78
2023/06/28 02:10:45;;;;;;;;;;;;;;;19.00;50.43;92808.88;2055412;69;20072;-77
2023/06/28 02:13:11;;;;;;;;;;;;;;;18.99;51.26;92806.72;2055337;70;20496;-78
2023/06/28 02:15:37;;;;;;;;;;;;;;;19.01;51.33;92798.97;2055409;70;20054;-77
2023/06/28 02:18:03;;;;;;;;;;;;;;;19.02;51.69;92800.41;2055550;70;20474;-77
2023/06/28 02:20:29;;;;;;;;;;;;;;;19.00;50.94;92799.59;2055616;69;20058;-77
2023/06/28 02:22:54;;;;;;;;;;;;;;;18.97;51.53;92793.13;2068247;69;20066;-76
2023/06/28 02:28:48;;;;;;;;;;;;;;;18.97;52.55;92784.56;2055499;69;20057;-77
2023/06/28 02:31:16;;;;;;;;;;;;;;;18.96;52.50;92785.22;2068381;69;20070;-77
2023/06/28 02:33:41;;;;;;;;;;;;;;;18.97;52.64;92786.69;2055180;70;20062;-77
2023/06/28 02:36:07;;;;;;;;;;;;;;;18.97;52.46;92806.66;2055409;70;20050;-77
2023/06/28 02:38:32;;;;;;;;;;;;;;;18.94;53.03;92803.00;2055011;70;20043;-77
2023/06/28 02:40:58;;;;;;;;;;;;;;;18.90;52.65;92811.44;2068086;69;20402;-77
2023/06/28 02:43:23;;;;;;;;;;;;;;;18.92;52.41;92811.50;2055244;70;20050;-78
2023/06/28 02:45:49;;;;;;;;;;;;;;;18.85;53.38;92809.13;2065427;69;20057;-77
2023/06/28 02:48:14;;;;;;;;;;;;;;;18.90;52.10;92805.72;2065681;69;20066;-77
2023/06/28 02:50:40;;;;;;;;;;;;;;;18.94;51.88;92807.97;2055462;70;20157;-77
2023/06/28 02:53:09;;;;;;;;;;;;;;;18.63;52.78;92812.66;2068340;69;20047;-77
2023/06/28 02:55:35;;;;;;;;;;;;;;;18.57;53.11;92801.09;2055390;70;20164;-77
2023/06/28 02:58:04;;;;;;;;;;;;;;;18.62;53.16;92811.22;2068412;69;20066;-78
2023/06/28 03:03:58;;;;;;;;;;;;;;;18.73;52.59;92823.69;2055387;69;20100;-78
2023/06/28 03:06:24;;;;;;;;;;;;;;;18.71;52.72;92823.66;2068274;69;20106;-78
2023/06/28 03:08:51;;;;;;;;;;;;;;;18.67;52.70;92829.19;2068256;69;20085;-78
2023/06/28 03:11:16;;;;;;;;;;;;;;;18.81;52.15;92832.53;2065436;69;20666;-78
2023/06/28 03:13:43;;;;;;;;;;;;;;;18.63;52.47;92831.91;2068170;69;20491;-79
2023/06/28 03:16:09;;;;;;;;;;;;;;;18.77;52.49;92826.69;2067881;69;20050;-78
2023/06/28 03:18:36;;;;;;;;;;;;;;;18.75;52.86;92815.22;2068185;69;20074;-78
2023/06/28 03:21:01;;;;;;;;;;;;;;;18.78;54.25;92819.59;2054858;70;20061;-78
2023/06/28 03:23:26;;;;;;;;;;;;;;;18.74;54.17;92808.06;2068131;69;20050;-77
2023/06/28 03:25:52;;;;;;;;;;;;;;;18.72;54.05;92816.56;2068303;69;20054;-80
2023/06/28 03:28:18;;;;;;;;;;;;;;;18.71;54.33;92809.41;2068669;69;20497;-79
2023/06/28 03:30:44;;;;;;;;;;;;;;;18.69;53.85;92817.88;2055489;70;20106;-79
2023/06/28 03:33:09;;;;;;;;;;;;;;;18.71;54.31;92812.97;2068407;69;20050;-79
2023/06/28 03:35:35;;;;;;;;;;;;;;;18.65;55.27;92821.31;2068366;69;20049;-79
2023/06/28 03:38:00;;;;;;;;;;;;;;;18.75;54.61;92826.63;2068128;69;20050;-79
2023/06/28 03:40:26;;;;;;;;;;;;;;;18.69;53.74;92820.72;2068510;69;20049;-79
2023/06/28 03:42:52;;;;;;;;;;;;;;;18.68;53.39;92819.22;2068562;69;20423;-79
2023/06/28 03:45:18;;;;;;;;;;;;;;;18.72;54.41;92816.56;2065663;69;20115;-79
2023/06/28 03:47:45;;;;;;;;;;;;;;;18.68;54.60;92817.09;2068564;69;20105;-79
2023/06/28 03:50:11;;;;;;;;;;;;;;;18.79;53.71;92815.38;2068502;69;20085;-79
2023/06/28 03:52:36;;;;;;;;;;;;;;;18.83;53.88;92826.16;2068502;69;20085;-80
2023/06/28 03:55:03;;;;;;;;;;;;;;;18.66;54.39;92830.59;2068975;69;20120;-79
2023/06/28 03:57:30;;;;;;;;;;;;;;;18.43;53.65;92820.56;2069156;69;20050;-80
2023/06/28 03:59:55;;;;;;;;;;;;;;;18.70;52.68;92820.06;2068975;69;20057;-79
2023/06/28 04:02:22;;;;;;;;;;;;;;;18.77;52.95;92818.13;2055832;69;20237;-79
2023/06/28 04:04:47;;;;;;;;;;;;;;;18.78;52.20;92819.59;2055940;70;20077;-79
2023/06/28 04:07:13;;;;;;;;;;;;;;;18.93;50.42;92826.50;2056115;69;20410;-80
2023/06/28 04:09:39;;;;;;;;;;;;;;;18.87;50.41;92824.16;2068784;69;20058;-79
2023/06/28 04:12:05;;;;;;;;;;;;;;;18.82;52.54;92827.56;2056008;70;20074;-79
2023/06/28 04:14:31;;;;;;;;;;;;;;;18.73;51.43;92829.41;2068971;69;20517;-79
2023/06/28 04:16:56;;;;;;;;;;;;;;;18.69;51.16;92829.28;2056546;70;20086;-80
2023/06/28 04:19:21;;;;;;;;;;;;;;;18.36;48.15;92825.31;2055976;69;20060;-79
2023/06/28 04:21:47;;;;;;;;;;;;;;;18.18;48.40;92830.38;2055969;69;20097;-78
2023/06/28 04:24:12;;;;;;;;;;;;;;;17.76;51.32;92845.31;2055850;70;20062;-79
2023/06/28 04:26:38;;;;;;;;;;;;;;;17.62;54.24;92855.41;2055793;70;20054;-79
2023/06/28 04:29:03;;;;;;;;;;;;;;;17.54;55.58;92847.28;2055876;69;20050;-79
2023/06/28 04:31:29;;;;;;;;;;;;;;;17.15;57.88;92840.16;2055874;70;20059;-80
2023/06/28 04:33:57;;;;;;;;;;;;;;;17.24;58.36;92846.88;2055839;69;20070;-81
2023/06/28 04:36:25;;;;;;;;;;;;;;;17.02;59.27;92855.28;2055817;69;20050;-79
2023/06/28 04:38:52;;;;;;;;;;;;;;;17.16;58.67;92855.84;2069016;69;20082;-79
2023/06/28 04:41:27;;;;;;;;;;;;;;;17.09;59.63;92859.09;2055948;70;20057;-78
2023/06/28 04:43:56;;;;;;;;;;;;;;;17.14;59.89;92855.03;2055994;70;20498;-78
2023/06/28 04:46:22;;;;;;;;;;;;;;;16.90;60.44;92869.00;2055911;70;20065;-79
2023/06/28 04:52:23;;;;;;;;;;;;;;;17.29;58.53;92859.88;2055849;69;20091;-79
2023/06/28 04:54:49;;;;;;;;;;;;;;;17.40;58.01;92867.41;2055665;69;20049;-79
2023/06/28 04:57:15;;;;;;;;;;;;;;;16.63;62.32;92872.84;2055888;69;20073;-79
2023/06/28 04:59:41;;;;;;;;;;;;;;;16.55;62.22;92869.69;2055940;69;20059;-79
2023/06/28 05:02:06;;;;;;;;;;;;;;;17.35;59.32;92877.19;2055910;69;20425;-77
2023/06/28 05:04:32;;;;;;;;;;;;;;;17.51;58.82;92874.25;2056061;69;20285;-80
2023/06/28 05:07:04;;;;;;;;;;;;;;;16.93;60.63;92885.50;2055828;69;20050;-78
2023/06/28 05:12:57;;;;;;;;;;;;;;;16.51;62.61;92890.88;2055924;69;20147;-80
2023/06/28 05:15:24;;;;;;;;;;;;;;;16.82;60.79;92886.50;2055963;70;20478;-80
2023/06/28 05:17:49;;;;;;;;;;;;;;;16.27;63.83;92889.88;2055876;70;20050;-80
2023/06/28 05:20:15;;;;;;;;;;;;;;;16.37;63.42;92889.56;2056116;69;20050;-80
2023/06/28 05:22:48;;;;;;;;;;;;;;;16.57;62.95;92893.25;2068824;69;20149;-80
2023/06/28 05:25:13;;;;;;;;;;;;;;;16.59;62.81;92886.94;2055795;69;20484;-80
2023/06/28 05:27:38;;;;;;;;;;;;;;;16.24;64.04;92893.97;2055633;70;20114;-79
2023/06/28 05:33:32;;;;;;;;;;;;;;;16.31;63.69;92900.66;2055961;69;20185;-80
2023/06/28 05:35:57;;;;;;;;;;;;;;;16.72;61.97;92900.25;2055908;69;20550;-80
2023/06/28 05:38:22;;;;;;;;;;;;;;;16.72;61.40;92898.19;2055847;70;20430;-80
2023/06/28 05:40:52;;;;;;;;;;;;;;;16.97;60.44;92907.69;2055944;69;20058;-80
2023/06/28 05:43:20;;;;;;;;;;;;;;;17.12;60.31;92903.28;2068471;69;20137;-80
2023/06/28 05:45:46;;;;;;;;;;;;;;;17.26;59.93;92907.44;2055606;70;20557;-80
2023/06/28 05:48:11;;;;;;;;;;;;;;;16.35;62.30;92910.06;2055756;70;20134;-80
2023/06/28 05:50:37;;;;;;;;;;;;;;;16.96;60.11;92912.66;2055582;70;20089;-80
2023/06/28 05:53:02;;;;;;;;;;;;;;;17.00;59.76;92921.34;2055617;70;20053;-79
2023/06/28 05:58:57;;;;;;;;;;;;;;;17.17;59.84;92931.25;2055774;69;20072;-79
2023/06/28 06:01:23;;;;;;;;;;;;;;;17.35;58.37;92919.13;2055730;69;20420;-79
2023/06/28 06:03:49;;;;;;;;;;;;;;;17.49;57.55;92928.94;2055475;69;20058;-79
2023/06/28 06:06:14;;;;;;;;;;;;;;;17.54;58.05;92941.22;2069419;69;20305;-80
2023/06/28 06:08:40;;;;;;;;;;;;;;;17.10;59.18;92935.25;2056118;70;20145;-79
2023/06/28 06:11:05;;;;;;;;;;;;;;;17.33;58.09;92942.56;2068883;69;20058;-80
2023/06/28 06:13:31;;;;;;;;;;;;;;;17.03;59.74;92939.22;2055695;69;20443;-79
2023/06/28 06:15:56;;;;;;;;;;;;;;;17.21;58.62;92942.78;2055551;70;20115;-79
2023/06/28 06:18:22;;;;;;;;;;;;;;;17.20;59.31;92952.00;2055770;69;20116;-78
2023/06/28 06:20:48;;;;;;;;;;;;;;;16.63;60.41;92947.50;2055850;70;20478;-79
2023/06/28 06:23:14;;;;;;;;;;;;;;;17.10;59.65;92958.00;2055526;70;20577;-79
2023/06/28 06:25:39;;;;;;;;;;;;;;;16.64;60.88;92957.50;2055633;69;20050;-79
2023/06/28 06:28:05;;;;;;;;;;;;;;;16.21;62.66;92958.47;2055568;69;20065;-79
2023/06/28 06:30:30;;;;;;;;;;;;;;;16.64;60.93;92962.44;2055696;69;20254;-79
2023/06/28 06:32:55;;;;;;;;;;;;;;;16.78;60.65;92960.22;2055606;70;20551;-79
2023/06/28 06:35:21;;;;;;;;;;;;;;;17.03;59.38;92964.81;2055633;70;20117;-79
2023/06/28 06:37:46;;;;;;;;;;;;;;;17.11;59.17;92968.00;2055791;70;20145;-79
2023/06/28 06:40:12;;;;;;;;;;;;;;;16.17;63.01;92966.09;2055553;70;20054;-79
2023/06/28 06:42:39;;;;;;;;;;;;;;;16.48;61.78;92971.72;2055235;70;20061;-78
2023/06/28 06:45:05;;;;;;;;;;;;;;;16.56;61.56;92976.31;2055335;69;20410;-79
2023/06/28 06:47:31;;;;;;;;;;;;;;;16.79;61.09;92975.19;2068606;69;20528;-79
2023/06/28 06:49:56;;;;;;;;;;;;;;;16.80;60.03;92974.53;2055745;70;20050;-78
2023/06/28 06:52:22;;;;;;;;;;;;;;;16.87;59.94;92979.09;2055655;70;20042;-79
2023/06/28 06:54:47;;;;;;;;;;;;;;;16.89;59.67;92976.31;2055620;69;20111;-78
2023/06/28 06:57:14;;;;;;;;;;;;;;;16.64;61.12;92973.81;2055612;69;20049;-79
2023/06/28 06:59:40;;;;;;;;;;;;;;;17.33;59.14;92984.50;2055614;69;20094;-79
2023/06/28 07:02:05;;;;;;;;;;;;;;;17.79;56.06;92977.09;2055310;69;20112;-78
2023/06/28 07:04:31;;;;;;;;;;;;;;;17.29;59.15;92976.53;2065735;69;20093;-78
2023/06/28 07:06:56;;;;;;;;;;;;;;;17.30;59.09;92977.25;2055711;70;20043;-79
2023/06/28 07:09:22;;;;;;;;;;;;;;;17.08;60.10;92969.28;2055532;70;20054;-79
2023/06/28 07:11:50;;;;;;;;;;;;;;;17.43;59.63;92976.38;2055591;69;20049;-78
2023/06/28 07:14:16;;;;;;;;;;;;;;;17.08;59.58;92974.97;2068687;69;20421;-80
2023/06/28 07:16:45;;;;;;;;;;;;;;;17.32;59.13;92978.09;2068282;69;20639;-79
2023/06/28 07:19:11;;;;;;;;;;;;;;;18.09;56.67;92976.78;2055241;70;20054;-80
2023/06/28 07:21:38;;;;;;;;;;;;;;;18.25;55.97;92978.13;2068561;69;20166;-80
2023/06/28 07:24:05;;;;;;;;;;;;;;;18.50;55.14;92982.56;2068447;69;20146;-80
2023/06/28 07:29:59;;;;;;;;;;;;;;;17.49;57.05;92985.88;2056012;69;20050;-78
2023/06/28 07:32:26;;;;;;;;;;;;;;;17.99;56.17;92992.09;2055788;70;20074;-79
2023/06/28 07:34:52;;;;;;;;;;;;;;;18.12;55.36;92990.44;2055972;69;20051;-79
2023/06/28 07:37:18;;;;;;;;;;;;;;;17.59;56.98;92988.38;2055872;69;20046;-79
2023/06/28 07:39:43;;;;;;;;;;;;;;;17.95;55.99;92986.25;2055969;70;20054;-79
2023/06/28 07:42:08;;;;;;;;;;;;;;;18.03;54.78;92983.72;2055993;70;20069;-78
2023/06/28 07:44:34;;;;;;;;;;;;;;;17.92;55.27;92986.84;2055960;70;20046;-79
2023/06/28 07:46:59;;;;;;;;;;;;;;;18.04;55.37;92990.13;2056304;70;20550;-79
2023/06/28 07:49:25;;;;;;;;;;;;;;;17.76;56.39;92990.50;2056075;70;20074;-78
2023/06/28 07:51:50;;;;;;;;;;;;;;;18.21;55.07;92997.91;2068749;69;20100;-78
2023/06/28 07:54:16;;;;;;;;;;;;;;;18.26;54.82;92993.09;2055992;70;20099;-80
2023/06/28 07:56:41;;;;;;;;;;;;;;;18.03;55.58;93000.06;2056809;70;20146;-78
2023/06/28 07:59:07;;;;;;;;;;;;;;;18.26;54.76;93001.66;2055968;70;20054;-81
2023/06/28 08:01:33;;;;;;;;;;;;;;;18.17;54.57;93014.13;2055829;70;20058;-77
2023/06/28 08:03:59;;;;;;;;;;;;;;;17.29;57.73;93007.84;2055784;69;20053;-78
2023/06/28 08:06:24;;;;;;;;;;;;;;;17.77;56.03;93003.38;2055662;70;20043;-77
2023/06/28 08:08:50;;;;;;;;;;;;;;;18.20;55.22;93005.00;2055357;70;20086;-76
2023/06/28 08:11:17;;;;;;;;;;;;;;;18.33;54.88;93002.63;2055720;70;20502;-77
2023/06/28 08:13:43;;;;;;;;;;;;;;;16.94;58.97;92991.44;2055806;70;20111;-78
2023/06/28 08:16:10;;;;;;;;;;;;;;;17.93;56.82;93011.81;2055715;69;20054;-77
2023/06/28 08:18:35;;;;;;;;;;;;;;;17.69;56.83;93008.72;2056034;69;20070;-78
2023/06/28 08:21:01;;;;;;;;;;;;;;;17.71;57.30;93002.38;2055807;70;20053;-78
2023/06/28 08:23:26;;;;;;;;;;;;;;;17.53;58.08;93005.22;2055526;70;20091;-77
2023/06/28 08:25:51;;;;;;;;;;;;;;;17.11;58.82;93004.25;2055597;69;20116;-78
2023/06/28 08:28:17;;;;;;;;;;;;;;;17.91;56.23;93011.72;2055898;70;20097;-78
2023/06/28 08:30:42;;;;;;;;;;;;;;;18.13;56.24;92996.88;2055749;70;20421;-77
2023/06/28 08:33:08;;;;;;;;;;;;;;;17.98;56.24;93002.03;2055642;70;20141;-82
2023/06/28 08:35:33;;;;;;;;;;;;;;;18.34;55.61;92999.09;2055979;70;20046;-79
2023/06/28 08:37:59;;;;;;;;;;;;;;;18.12;56.59;93007.53;2055869;70;20077;-79
2023/06/28 08:40:27;;;;;;;;;;;;;;;18.49;55.82;92998.22;2055858;70;20089;-79
2023/06/28 08:42:55;;;;;;;;;;;;;;;18.10;56.57;93004.63;2069072;69;20445;-79
2023/06/28 08:45:21;;;;;;;;;;;;;;;18.16;56.43;92992.72;2055831;69;20058;-79
2023/06/28 08:47:47;;;;;;;;;;;;;;;18.28;56.06;92987.50;2055927;70;20058;-77
2023/06/28 08:50:13;;;;;;;;;;;;;;;18.01;56.88;92995.03;2055930;69;20054;-77
2023/06/28 08:52:40;;;;;;;;;;;;;;;17.77;57.01;92996.94;2055839;70;20054;-80
2023/06/28 08:55:06;;;;;;;;;;;;;;;18.40;56.26;92993.63;2055788;70;20131;-79
2023/06/28 08:57:32;;;;;;;;;;;;;;;18.74;54.63;92990.59;2055658;69;20062;-79
2023/06/28 08:59:58;;;;;;;;;;;;;;;18.34;57.47;92995.53;2068147;69;20407;-79
2023/06/28 09:02:27;;;;;;;;;;;;;;;18.24;56.48;92993.03;2055791;69;20047;-79
2023/06/28 09:04:53;;;;;;;;;;;;;;;18.13;57.08;92996.88;2055923;70;20107;-80
2023/06/28 09:07:21;;;;;;;;;;;;;;;18.18;56.07;92996.38;2055786;70;20050;-81
2023/06/28 09:09:50;;;;;;;;;;;;;;;17.90;57.29;93001.72;2055828;70;20475;-81
2023/06/28 09:12:15;;;;;;;;;;;;;;;18.86;54.88;92999.53;2055760;70;20101;-79
2023/06/28 09:14:41;;;;;;;;;;;;;;;18.16;55.27;93002.00;2068665;69;20093;-79
2023/06/28 09:17:08;;;;;;;;;;;;;;;18.06;56.27;93006.59;2055708;69;20234;-78
2023/06/28 09:19:33;;;;;;;;;;;;;;;18.63;54.35;93000.13;2069001;69;20054;-78
2023/06/28 09:22:02;;;;;;;;;;;;;;;18.22;54.97;92998.63;2055882;69;20054;-79
2023/06/28 09:24:31;;;;;;;;;;;;;;;18.22;55.80;92990.09;2055750;70;20092;-80
2023/06/28 09:27:00;;;;;;;;;;;;;;;18.84;54.25;92993.06;2055828;70;20566;-80
2023/06/28 09:29:26;;;;;;;;;;;;;;;18.93;53.43;92991.94;2069818;69;20177;-80
2023/06/28 09:31:53;;;;;;;;;;;;;;;19.07;53.35;92998.13;2055618;70;20562;-79
2023/06/28 09:34:22;;;;;;;;;;;;;;;18.49;53.84;92997.50;2055602;69;20115;-79
2023/06/28 09:36:51;;;;;;;;;;;;;;;18.93;52.98;93000.50;2055626;70;20050;-80
2023/06/28 09:39:18;;;;;;;;;;;;;;;18.79;52.74;92998.63;2055768;70;20184;-84
2023/06/28 09:41:43;;;;;;;;;;;;;;;18.93;52.69;92991.94;2055607;69;20061;-81
2023/06/28 09:44:10;;;;;;;;;;;;;;;19.19;52.57;92995.66;2068587;69;20054;-82
2023/06/28 09:46:41;;;;;;;;;;;;;;;18.85;53.38;92991.66;2058080;70;20093;-80
2023/06/28 09:52:36;;;;;;;;;;;;;;;19.33;51.69;92998.25;2055897;69;20147;-80
2023/06/28 09:55:02;;;;;;;;;;;;;;;18.72;53.21;93001.91;2055758;70;20058;-80
2023/06/28 09:57:29;;;;;;;;;;;;;;;19.42;52.15;93000.00;2057400;70;20043;-79
2023/06/28 09:59:55;;;;;;;;;;;;;;;18.39;54.30;93003.56;2056165;69;20058;-80
2023/06/28 10:02:22;;;;;;;;;;;;;;;18.89;52.78;93003.94;2055745;69;20174;-80
2023/06/28 10:04:50;;;;;;;;;;;;;;;18.74;53.24;92996.28;2055498;70;20058;-80
2023/06/28 10:07:17;;;;;;;;;;;;;;;19.16;53.02;92996.28;2055013;70;20074;-79
2023/06/28 10:09:43;;;;;;;;;;;;;;;19.31;52.21;92992.50;2055623;70;20070;-80
2023/06/28 10:15:43;;;;;;;;;;;;;;;19.53;51.23;92992.50;2056082;69;20049;-80
2023/06/28 10:18:09;;;;;;;;;;;;;;;19.38;51.46;92997.03;2056148;69;20417;-80
2023/06/28 10:20:37;;;;;;;;;;;;;;;19.02;52.35;92991.56;2055866;70;20482;-80
2023/06/28 10:23:04;;;;;;;;;;;;;;;19.56;52.07;93002.59;2055788;70;20426;-81
2023/06/28 10:25:30;;;;;;;;;;;;;;;19.17;52.74;93001.31;2055925;69;20050;-89
2023/06/28 10:27:55;;;;;;;;;;;;;;;19.60;51.73;92994.19;2055986;69;20077;-89
2023/06/28 10:30:21;;;;;;;;;;;;;;;18.58;53.93;92995.66;2068814;69;20425;-82
2023/06/28 10:32:47;;;;;;;;;;;;;;;18.90;53.04;92993.25;2068864;69;20057;-83
2023/06/28 10:35:13;;;;;;;;;;;;;;;18.67;53.42;92998.16;2055989;70;20053;-79
2023/06/28 10:37:39;;;;;;;;;;;;;;;19.17;52.76;92995.63;2055883;69;20043;-83
2023/06/28 10:40:05;;;;;;;;;;;;;;;19.65;52.22;92992.19;2055687;69;20050;-82
2023/06/28 10:42:41;;;;;;;;;;;;;;;20.02;51.05;92996.91;2055880;70;20045;-86
2023/06/28 10:45:08;;;;;;;;;;;;;;;19.08;51.83;92999.59;2055614;70;20382;-80
2023/06/28 10:47:34;;;;;;;;;;;;;;;18.86;53.26;93008.09;2055303;69;20057;-80
2023/06/28 10:50:10;;;;;;;;;;;;;;;18.74;53.11;93007.69;2055659;70;20084;-79
2023/06/28 10:56:06;;;;;;;;;;;;;;;18.19;54.31;93017.78;2055740;69;20049;-79
2023/06/28 10:58:38;;;;;;;;;;;;;;;18.36;54.60;93001.28;2055525;69;20054;-78
2023/06/28 11:01:05;;;;;;;;;;;;;;;18.19;54.88;93012.09;2055786;70;20058;-78
2023/06/28 11:03:38;;;;;;;;;;;;;;;18.59;54.18;93005.69;2057983;69;20035;-79
2023/06/28 11:06:04;;;;;;;;;;;;;;;18.54;53.72;93002.69;2056171;70;20053;-79
2023/06/28 11:08:49;;;;;;;;;;;;;;;18.32;54.92;93004.72;2068628;69;20051;-79
2023/06/28 11:11:34;;;;;;;;;;;;;;;19.03;53.55;93007.28;2056068;69;20161;-78
2023/06/28 11:14:15;;;;;;;;;;;;;;;18.18;55.24;93012.72;2069212;69;20050;-82
2023/06/28 11:16:41;;;;;;;;;;;;;;;18.41;55.10;93002.88;2056104;70;20111;-79
2023/06/28 11:19:13;;;;;;;;;;;;;;;19.29;52.70;93004.59;2056026;70;20047;-80
2023/06/28 11:21:38;;;;;;;;;;;;;;;18.96;52.40;93005.59;2056081;70;20065;-80
2023/06/28 11:24:04;;;;;;;;;;;;;;;18.90;52.43;93001.81;2055838;69;20468;-78
2023/06/28 11:26:51;;;;;;;;;;;;;;;19.68;51.46;93003.00;2068989;69;20050;-80
2023/06/28 11:29:17;;;;;;;;;;;;;;;19.67;50.90;93003.69;2058238;69;20085;-80
2023/06/28 11:31:46;;;;;;;;;;;;;;;19.02;52.33;93000.13;2055987;69;20137;-80
2023/06/28 11:34:15;;;;;;;;;;;;;;;18.47;53.96;93005.97;2057694;70;20499;-80
2023/06/28 11:36:44;;;;;;;;;;;;;;;19.02;53.02;93002.97;2056415;70;20430;-80
2023/06/28 11:39:13;;;;;;;;;;;;;;;18.54;54.65;93005.53;2055806;69;20398;-79
2023/06/28 11:41:39;;;;;;;;;;;;;;;18.80;54.12;93010.75;2055968;70;20051;-79
2023/06/28 11:44:05;;;;;;;;;;;;;;;18.85;53.67;93012.34;2056021;70;20054;-80
2023/06/28 11:46:33;;;;;;;;;;;;;;;18.82;53.76;93012.94;2069063;69;20052;-79
2023/06/28 11:49:00;;;;;;;;;;;;;;;18.56;54.10;93012.72;2055977;69;20461;-79
2023/06/28 11:51:26;;;;;;;;;;;;;;;18.35;55.33;93011.22;2056015;69;20119;-79
2023/06/28 11:53:55;;;;;;;;;;;;;;;18.80;54.06;93016.44;2068911;69;20093;-80
2023/06/28 11:59:52;;;;;;;;;;;;;;;19.42;52.92;93005.69;2055951;69;20500;-81
2023/06/28 12:02:18;;;;;;;;;;;;;;;19.56;51.99;93011.16;2055803;69;20046;-79
2023/06/28 12:04:53;;;;;;;;;;;;;;;19.53;53.29;93016.06;2056065;69;20489;-85
2023/06/28 12:07:21;;;;;;;;;;;;;;;19.54;52.96;93013.94;2056104;70;20057;-84
2023/06/28 12:09:46;;;;;;;;;;;;;;;19.03;53.07;93012.97;2055911;70;20057;-80
2023/06/28 12:15:40;;;;;;;;;;;;;;;18.44;54.76;93008.00;2055759;69;20504;-78
2023/06/28 12:18:06;;;;;;;;;;;;;;;19.06;53.10;92999.53;2055249;69;20074;-79
2023/06/28 12:20:33;;;;;;;;;;;;;;;19.22;52.91;93002.19;2055610;70;20664;-79
2023/06/28 12:22:59;;;;;;;;;;;;;;;18.87;54.43;93011.69;2055952;69;20149;-79
2023/06/28 12:25:26;;;;;;;;;;;;;;;18.40;55.44;93007.13;2055620;70;20165;-79
2023/06/28 12:28:02;;;;;;;;;;;;;;;18.65;54.15;93009.50;2055739;70;20062;-79
2023/06/28 12:30:28;;;;;;;;;;;;;;;18.43;55.46;93015.13;2055847;69;20203;-80
2023/06/28 12:32:56;;;;;;;;;;;;;;;18.15;55.86;93022.59;2056086;70;20153;-79
2023/06/28 12:35:23;;;;;;;;;;;;;;;18.79;54.46;93023.56;2055883;69;20047;-80
2023/06/28 12:37:55;;;;;;;;;;;;;;;19.15;53.25;93014.78;2056152;70;20061;-80
2023/06/28 12:40:24;;;;;;;;;;;;;;;19.26;52.69;93019.44;2055781;69;20108;-80
2023/06/28 12:43:07;;;;;;;;;;;;;;;19.31;52.26;93012.47;2055904;70;20042;-80
2023/06/28 12:45:32;;;;;;;;;;;;;;;19.02;53.18;93022.22;2056068;70;20487;-81
2023/06/28 12:47:59;;;;;;;;;;;;;;;19.18;52.42;93017.03;2055874;70;20045;-81
2023/06/28 12:50:24;;;;;;;;;;;;;;;18.73;54.28;93015.50;2055910;70;20050;-81
2023/06/28 12:52:50;;;;;;;;;;;;;;;18.80;53.44;93016.44;2055908;70;20054;-81
2023/06/28 12:55:15;;;;;;;;;;;;;;;18.84;53.72;93015.88;2055723;70;20437;-80
2023/06/28 12:57:40;;;;;;;;;;;;;;;19.26;52.45;93016.59;2056116;69;20061;-80
2023/06/28 13:00:06;;;;;;;;;;;;;;;18.83;53.29;93009.44;2055720;70;20070;-80
2023/06/28 13:02:32;;;;;;;;;;;;;;;19.19;52.35;93012.78;2055701;69;20058;-80
2023/06/28 13:04:57;;;;;;;;;;;;;;;18.86;53.87;93010.94;2055812;70;20053;-80
2023/06/28 13:07:22;;;;;;;;;;;;;;;19.34;52.43;93011.16;2055780;69;20492;-81
2023/06/28 13:09:48;;;;;;;;;;;;;;;18.87;53.41;93006.69;2068724;69;20593;-80
2023/06/28 13:12:14;;;;;;;;;;;;;;;18.82;53.88;93016.50;2055812;70;20053;-81
2023/06/28 13:14:39;;;;;;;;;;;;;;;19.68;52.58;93008.72;2055811;69;20046;-81
2023/06/28 13:17:05;;;;;;;;;;;;;;;19.77;52.14;93010.44;2055897;70;20421;-80
2023/06/28 13:19:31;;;;;;;;;;;;;;;19.78;50.89;93008.31;2068797;69;20504;-80
2023/06/28 13:21:56;;;;;;;;;;;;;;;19.68;52.05;93011.56;2056171;70;20086;-80
2023/06/28 13:27:50;;;;;;;;;;;;;;;19.47;52.06;93007.31;2055990;69;20218;-81
2023/06/28 13:30:17;;;;;;;;;;;;;;;19.91;51.01;93003.72;2055739;70;20493;-81
2023/06/28 13:32:42;;;;;;;;;;;;;;;19.73;51.29;93009.56;2055775;69;20046;-81
2023/06/28 13:35:08;;;;;;;;;;;;;;;20.22;50.73;93011.81;2055703;70;20061;-81
2023/06/28 13:37:33;;;;;;;;;;;;;;;19.76;51.53;93014.69;2055782;69;20126;-81
2023/06/28 13:40:02;;;;;;;;;;;;;;;19.91;50.59;93006.56;2068703;69;20046;-80